Terminal Aerodrome Forecast
Issued by NWS

Home | Current Version | Previous Version | Text Only | Print | Product List | Glossary On
Versions: 1 2 3 4 5 6 7 8 9 10 11 12 13 14 15 16 17 18 19 20 21 22 23 24 25 26 27 28 29 30 31 32 33 34 35 36 37 38 39 40
895
FTUS45 KBOU 070525
TAFBJC
TAF
KBJC 070525Z 0706/0806 27015G25KT P6SM FEW130 BKN200
      TEMPO 0706/0709 VRB06KT
     FM070900 30011KT P6SM FEW140 BKN200
     FM071700 01007KT P6SM FEW140 SCT200
     FM072200 VRB06KT P6SM FEW140 SCT200
     FM080200 26009KT P6SM SCT200=

USA.gov is the U.S. government's official web portal to all federal, state and local government web resources and services.